createdAt,value
2022-09-23T00:01:25.858Z,2.83
2022-09-23T00:03:56.282Z,3.00
2022-09-23T00:06:25.189Z,2.97
2022-09-23T00:08:53.722Z,2.50
2022-09-23T00:11:23.417Z,3.07
2022-09-23T00:13:54.228Z,2.80
2022-09-23T00:16:23.602Z,3.30
2022-09-23T00:18:51.516Z,2.90
2022-09-23T00:21:22.542Z,3.30
2022-09-23T00:23:50.549Z,3.30
2022-09-23T00:26:20.603Z,2.97
2022-09-23T00:28:48.941Z,3.30
2022-09-23T00:31:19.986Z,3.20
2022-09-23T00:33:48.014Z,2.73
2022-09-23T00:36:16.933Z,2.90
2022-09-23T00:38:46.278Z,2.90
2022-09-23T00:41:15.935Z,2.77
2022-09-23T00:43:46.085Z,2.60
2022-09-23T00:46:18.565Z,2.67
2022-09-23T00:48:48.795Z,2.90
2022-09-23T00:51:20.612Z,2.33
2022-09-23T00:53:52.105Z,3.27
2022-09-23T00:56:22.241Z,2.50
2022-09-23T00:58:51.583Z,2.97
2022-09-23T01:01:20.857Z,3.07
2022-09-23T01:03:50.026Z,2.80
2022-09-23T01:06:18.216Z,2.50
2022-09-23T01:08:47.777Z,2.70
2022-09-23T01:11:31.269Z,2.83
2022-09-23T01:14:10.710Z,2.60
2022-09-23T01:16:45.366Z,2.40
2022-09-23T01:19:32.451Z,2.80
2022-09-23T01:22:09.897Z,2.80
2022-09-23T01:24:54.274Z,2.53
2022-09-23T01:27:38.101Z,3.03
2022-09-23T01:30:18.629Z,2.93
2022-09-23T01:33:06.170Z,2.77
2022-09-23T01:35:47.868Z,3.17
2022-09-23T01:38:27.737Z,2.60
2022-09-23T01:41:04.513Z,3.27
2022-09-23T01:43:41.630Z,2.70
2022-09-23T01:46:14.120Z,3.07
2022-09-23T01:48:50.824Z,3.23
2022-09-23T01:51:25.337Z,3.60
2022-09-23T01:53:58.849Z,3.03
2022-09-23T01:56:30.340Z,3.23
2022-09-23T01:59:03.332Z,2.90
2022-09-23T02:01:36.305Z,3.30
2022-09-23T02:04:09.731Z,2.63
2022-09-23T02:06:42.469Z,2.70
2022-09-23T02:09:15.599Z,2.40
2022-09-23T02:11:46.099Z,2.60
2022-09-23T02:14:20.301Z,2.40
2022-09-23T02:16:50.874Z,2.50
2022-09-23T02:19:26.988Z,2.33
2022-09-23T02:22:01.342Z,2.50
2022-09-23T02:24:32.652Z,2.50
2022-09-23T02:27:07.658Z,2.93
2022-09-23T02:29:42.218Z,2.97
2022-09-23T02:32:17.800Z,2.33
2022-09-23T02:34:53.749Z,2.50
2022-09-23T02:37:28.633Z,2.70
2022-09-23T02:40:03.165Z,2.60
2022-09-23T02:42:39.342Z,3.50
2022-09-23T02:45:07.692Z,2.87
2022-09-23T02:47:39.571Z,2.87
2022-09-23T02:50:10.125Z,3.03
2022-09-23T02:52:38.680Z,2.63
2022-09-23T02:55:07.248Z,2.50
2022-09-23T02:57:35.566Z,2.57
2022-09-23T03:00:03.605Z,2.73
2022-09-23T03:02:52.722Z,3.00
2022-09-23T03:05:30.207Z,3.10
2022-09-23T03:08:12.798Z,2.63
2022-09-23T03:10:49.785Z,2.77
2022-09-23T03:13:29.402Z,2.97
2022-09-23T03:16:06.046Z,2.87
2022-09-23T03:18:40.266Z,2.73
2022-09-23T03:21:15.825Z,2.57
2022-09-23T03:23:45.768Z,2.53
2022-09-23T03:26:17.273Z,2.20
2022-09-23T03:28:46.684Z,2.73
2022-09-23T03:31:16.200Z,3.50
2022-09-23T03:33:47.869Z,3.30
2022-09-23T03:36:40.110Z,3.03
2022-09-23T03:39:12.589Z,2.90
2022-09-23T03:41:48.318Z,3.03
2022-09-23T03:44:17.382Z,3.10
2022-09-23T03:46:49.610Z,3.03
2022-09-23T03:49:19.841Z,3.30
2022-09-23T03:51:48.889Z,2.97
2022-09-23T03:54:19.621Z,2.53
2022-09-23T03:56:48.234Z,3.17
2022-09-23T03:59:16.094Z,4.00
2022-09-23T04:01:44.224Z,2.50
2022-09-23T04:04:11.996Z,2.90
2022-09-23T04:06:39.751Z,2.70
2022-09-23T04:09:09.257Z,3.07
2022-09-23T04:11:37.263Z,3.50
2022-09-23T04:14:05.493Z,3.10
2022-09-23T04:16:33.426Z,3.40
2022-09-23T04:19:01.217Z,3.40
2022-09-23T04:21:31.501Z,3.80
2022-09-23T04:23:59.236Z,3.20
2022-09-23T04:26:28.426Z,3.63
2022-09-23T04:28:56.705Z,3.70
2022-09-23T04:31:24.979Z,3.13
2022-09-23T04:33:53.989Z,3.17
2022-09-23T04:36:21.788Z,3.87
2022-09-23T04:38:50.942Z,3.43
2022-09-23T04:41:19.733Z,3.97
2022-09-23T04:43:48.952Z,3.57
2022-09-23T04:46:17.943Z,2.87
2022-09-23T04:48:46.114Z,3.93
2022-09-23T04:51:16.020Z,3.33
2022-09-23T04:53:45.290Z,3.20
2022-09-23T04:56:15.061Z,3.67
2022-09-23T04:58:43.798Z,3.97
2022-09-23T05:01:15.119Z,3.50
2022-09-23T05:03:44.055Z,4.00
2022-09-23T05:06:13.686Z,3.23
2022-09-23T05:08:42.251Z,3.43
2022-09-23T05:11:09.993Z,3.53
2022-09-23T05:13:37.792Z,3.03
2022-09-23T05:16:07.907Z,2.80
2022-09-23T05:18:42.596Z,3.47
2022-09-23T05:21:11.058Z,2.97
2022-09-23T05:23:39.710Z,3.07
2022-09-23T05:26:10.380Z,2.93
2022-09-23T05:28:39.306Z,3.33
2022-09-23T05:31:15.820Z,2.90
2022-09-23T05:33:51.601Z,3.10
2022-09-23T05:36:20.528Z,3.40
2022-09-23T05:38:49.110Z,3.47
2022-09-23T05:41:17.160Z,3.33
2022-09-23T05:43:45.022Z,2.70
2022-09-23T05:46:14.793Z,3.43
2022-09-23T05:48:43.933Z,3.30
2022-09-23T05:51:16.164Z,3.37
2022-09-23T05:53:45.272Z,3.10
2022-09-23T05:56:13.545Z,3.30
2022-09-23T05:58:41.446Z,3.70
2022-09-23T06:01:12.969Z,3.57
2022-09-23T06:03:41.378Z,2.90
2022-09-23T06:06:15.295Z,3.07
2022-09-23T06:08:43.503Z,3.27
2022-09-23T06:11:12.319Z,3.90
2022-09-23T06:13:40.949Z,3.40
2022-09-23T06:16:10.593Z,3.13
2022-09-23T06:18:40.324Z,3.47
2022-09-23T06:21:08.239Z,3.80
2022-09-23T06:23:40.540Z,4.13
2022-09-23T06:26:11.022Z,3.50
2022-09-23T06:28:40.365Z,3.10
2022-09-23T06:31:13.842Z,4.53
2022-09-23T06:33:43.086Z,4.60
2022-09-23T06:36:11.644Z,4.50
2022-09-23T06:38:41.713Z,3.80
2022-09-23T06:41:09.561Z,5.10
2022-09-23T06:43:37.354Z,4.60
2022-09-23T06:46:07.247Z,4.43
2022-09-23T06:48:36.093Z,4.10
2022-09-23T06:51:07.225Z,4.20
2022-09-23T06:53:35.660Z,5.33
2022-09-23T06:56:07.246Z,5.40
2022-09-23T06:58:37.944Z,5.77
2022-09-23T07:01:10.575Z,4.80
2022-09-23T07:03:39.329Z,4.70
2022-09-23T07:06:08.120Z,4.80
2022-09-23T07:08:37.328Z,3.10
2022-09-23T07:11:13.471Z,3.70
2022-09-23T07:13:42.569Z,4.50
2022-09-23T07:16:11.536Z,4.97
2022-09-23T07:18:40.660Z,3.63
2022-09-23T07:21:10.216Z,3.87
2022-09-23T07:23:38.841Z,3.57
2022-09-23T07:26:08.775Z,4.47
2022-09-23T07:28:37.230Z,4.20
2022-09-23T07:31:10.032Z,4.50
2022-09-23T07:33:39.695Z,5.10
2022-09-23T07:36:10.037Z,4.17
2022-09-23T07:38:42.833Z,4.17
2022-09-23T07:41:17.092Z,4.83
2022-09-23T07:43:45.430Z,3.83
2022-09-23T07:46:17.333Z,4.40
2022-09-23T07:48:46.203Z,4.50
2022-09-23T07:51:17.368Z,4.20
2022-09-23T07:53:48.056Z,4.33
2022-09-23T07:56:18.998Z,3.90
2022-09-23T07:58:59.697Z,4.13
2022-09-23T08:01:29.599Z,4.10
2022-09-23T08:03:58.046Z,4.13
2022-09-23T08:06:25.899Z,4.30
2022-09-23T08:08:53.960Z,3.73
2022-09-23T08:11:23.668Z,4.30
2022-09-23T08:13:51.679Z,3.67
2022-09-23T08:16:19.575Z,4.43
2022-09-23T08:18:47.668Z,4.00
2022-09-23T08:21:20.274Z,3.77
2022-09-23T08:23:48.100Z,3.30
2022-09-23T08:26:21.258Z,3.67
2022-09-23T08:28:54.394Z,3.30
2022-09-23T08:31:22.954Z,4.67
2022-09-23T08:33:56.380Z,3.67
2022-09-23T08:36:24.643Z,4.30
2022-09-23T08:38:52.952Z,3.90
2022-09-23T08:41:26.932Z,4.50
2022-09-23T08:43:59.946Z,3.70
2022-09-23T08:46:33.066Z,4.00
2022-09-23T08:49:02.214Z,3.90
2022-09-23T08:51:36.452Z,3.63
2022-09-23T08:54:04.467Z,3.23
2022-09-23T08:56:35.464Z,3.53
2022-09-23T08:59:10.420Z,3.37
2022-09-23T09:01:43.806Z,3.97
2022-09-23T09:04:18.088Z,4.10
2022-09-23T09:06:54.073Z,3.37
2022-09-23T09:09:26.829Z,3.40
2022-09-23T09:12:03.293Z,4.57
2022-09-23T09:14:38.822Z,3.40
2022-09-23T09:17:10.445Z,3.07
2022-09-23T09:19:55.210Z,3.40
2022-09-23T09:22:38.271Z,2.33
2022-09-23T09:25:18.437Z,2.73
2022-09-23T09:27:48.321Z,2.30
2022-09-23T09:30:18.499Z,2.60
2022-09-23T09:32:49.724Z,2.10
2022-09-23T09:35:28.054Z,2.10
2022-09-23T09:37:56.049Z,2.30
2022-09-23T09:40:23.931Z,2.17
2022-09-23T09:42:51.906Z,2.30
2022-09-23T09:45:29.998Z,2.33
2022-09-23T09:48:07.226Z,2.43
2022-09-23T09:50:49.013Z,1.90
2022-09-23T09:53:25.732Z,2.47
2022-09-23T09:56:05.313Z,3.10
2022-09-23T09:58:45.926Z,2.60
2022-09-23T10:01:23.263Z,2.87
2022-09-23T10:03:55.556Z,2.80
2022-09-23T10:06:27.445Z,3.30
2022-09-23T10:09:16.948Z,2.77
2022-09-23T10:12:03.866Z,3.10
2022-09-23T10:14:31.632Z,2.80
2022-09-23T10:17:06.269Z,2.63
2022-09-23T10:19:37.051Z,2.80
2022-09-23T10:22:10.676Z,2.80
2022-09-23T10:24:38.810Z,3.20
2022-09-23T10:27:09.460Z,3.47
2022-09-23T10:29:40.077Z,4.00
2022-09-23T10:32:26.892Z,4.00
2022-09-23T10:34:58.339Z,3.10
2022-09-23T10:37:32.781Z,2.60
2022-09-23T10:40:19.538Z,3.27
2022-09-23T10:43:25.055Z,3.10
2022-09-23T10:46:16.239Z,2.80
2022-09-23T10:49:01.816Z,2.20
2022-09-23T10:51:35.745Z,2.47
2022-09-23T10:54:14.085Z,3.37
2022-09-23T10:56:45.735Z,2.00
2022-09-23T10:59:45.106Z,2.27
2022-09-23T11:02:29.997Z,2.33
2022-09-23T11:05:25.639Z,2.70
2022-09-23T11:08:04.027Z,2.70
2022-09-23T11:10:57.766Z,2.70
2022-09-23T11:13:43.694Z,2.50
2022-09-23T11:16:25.642Z,2.80
2022-09-23T11:19:11.186Z,2.67
2022-09-23T11:22:05.394Z,2.53
2022-09-23T11:25:06.719Z,2.00
2022-09-23T11:27:46.777Z,3.03
2022-09-23T11:30:17.239Z,2.40
2022-09-23T11:33:20.914Z,2.80
2022-09-23T11:35:53.303Z,3.10
2022-09-23T11:38:26.228Z,2.93
2022-09-23T11:40:57.409Z,3.20
2022-09-23T11:43:28.517Z,3.03
2022-09-23T11:46:01.245Z,2.90
2022-09-23T11:48:36.939Z,3.40
2022-09-23T11:51:12.040Z,2.67
2022-09-23T11:53:46.464Z,2.93
2022-09-23T11:56:32.947Z,2.97
2022-09-23T11:59:07.979Z,2.30
2022-09-23T12:01:43.173Z,3.07
2022-09-23T12:04:22.072Z,2.90
2022-09-23T12:06:53.965Z,3.57
2022-09-23T12:09:47.249Z,2.93
2022-09-23T12:12:19.006Z,2.50
2022-09-23T12:14:56.519Z,2.30
2022-09-23T12:18:04.237Z,3.20
2022-09-23T12:20:49.486Z,2.90
2022-09-23T12:23:29.874Z,3.23
2022-09-23T12:26:02.979Z,2.93
2022-09-23T12:28:35.989Z,2.97
2022-09-23T12:31:06.846Z,3.10
2022-09-23T12:33:36.731Z,3.10
2022-09-23T12:36:06.773Z,3.60
2022-09-23T12:38:37.042Z,3.43
2022-09-23T12:41:21.866Z,3.50
2022-09-23T12:43:54.781Z,3.30
2022-09-23T12:46:25.969Z,3.30
2022-09-23T12:49:03.085Z,2.77
2022-09-23T12:51:31.764Z,3.30
2022-09-23T12:54:25.231Z,3.10
2022-09-23T12:57:40.495Z,3.30
2022-09-23T13:00:25.906Z,3.53
2022-09-23T13:03:15.842Z,3.10
2022-09-23T13:06:04.945Z,3.33
2022-09-23T13:08:36.593Z,2.87
2022-09-23T13:11:08.451Z,3.20
2022-09-23T13:13:40.987Z,2.90
2022-09-23T13:16:14.577Z,4.63
2022-09-23T13:18:54.113Z,3.77
2022-09-23T13:21:55.011Z,3.03
2022-09-23T13:24:39.626Z,3.80
2022-09-23T13:27:16.621Z,3.30
2022-09-23T13:29:51.085Z,3.00
2022-09-23T13:32:21.779Z,3.13
2022-09-23T13:34:57.869Z,2.60
2022-09-23T13:37:31.205Z,2.87
2022-09-23T13:40:09.772Z,3.30
2022-09-23T13:42:41.797Z,3.30
2022-09-23T13:45:17.773Z,3.10
2022-09-23T13:47:47.686Z,2.97
2022-09-23T13:50:19.855Z,3.07
2022-09-23T13:52:52.261Z,3.13
2022-09-23T13:55:37.138Z,2.87
2022-09-23T13:58:13.749Z,2.50
2022-09-23T14:00:42.905Z,3.10
2022-09-23T14:03:25.351Z,3.77
2022-09-23T14:05:54.794Z,3.60
2022-09-23T14:08:23.103Z,3.43
2022-09-23T14:10:51.066Z,3.50
2022-09-23T14:13:25.892Z,3.20
2022-09-23T14:15:58.198Z,3.70
2022-09-23T14:18:34.196Z,3.30
2022-09-23T14:21:02.041Z,3.57
2022-09-23T14:23:29.764Z,3.10
2022-09-23T14:25:58.860Z,3.17
2022-09-23T14:28:28.553Z,3.27
2022-09-23T14:30:58.789Z,3.40
2022-09-23T14:33:29.338Z,3.13
2022-09-23T14:36:03.826Z,2.47
2022-09-23T14:38:49.517Z,3.30
2022-09-23T14:41:21.861Z,3.67
2022-09-23T14:43:52.600Z,3.57
2022-09-23T14:46:23.701Z,2.83
2022-09-23T14:48:57.790Z,3.13
2022-09-23T14:51:32.669Z,2.90
2022-09-23T14:54:32.914Z,3.07
2022-09-23T14:57:01.900Z,3.10
2022-09-23T14:59:33.969Z,2.60
2022-09-23T15:02:03.538Z,3.10
2022-09-23T15:04:35.366Z,2.83
2022-09-23T15:07:08.169Z,3.00
2022-09-23T15:09:39.649Z,2.20
2022-09-23T15:12:12.822Z,3.00
2022-09-23T15:14:46.353Z,3.20
2022-09-23T15:17:32.412Z,2.60
2022-09-23T15:20:02.621Z,2.57
2022-09-23T15:22:30.449Z,2.63
2022-09-23T15:25:15.519Z,3.10
2022-09-23T15:27:43.531Z,2.80
2022-09-23T15:30:17.038Z,2.90
2022-09-23T15:32:47.061Z,2.33
2022-09-23T15:35:16.259Z,2.70
2022-09-23T15:37:44.253Z,3.40
2022-09-23T15:40:20.585Z,2.90
2022-09-23T15:42:52.308Z,3.00
2022-09-23T15:45:21.999Z,3.23
2022-09-23T15:47:52.083Z,3.40
2022-09-23T15:50:20.367Z,2.90
2022-09-23T15:52:48.279Z,3.20
2022-09-23T15:55:18.231Z,2.40
2022-09-23T15:57:46.359Z,2.80
2022-09-23T16:00:16.275Z,2.90
2022-09-23T16:02:46.661Z,2.90
2022-09-23T16:05:22.667Z,2.60
2022-09-23T16:07:52.342Z,3.30
2022-09-23T16:10:22.706Z,3.03
2022-09-23T16:12:52.220Z,2.40
2022-09-23T16:15:22.311Z,2.40
2022-09-23T16:17:50.489Z,2.73
2022-09-23T16:20:20.277Z,2.70
2022-09-23T16:22:53.944Z,2.70
2022-09-23T16:25:22.571Z,2.63
2022-09-23T16:27:50.378Z,2.60
2022-09-23T16:30:18.302Z,2.90
2022-09-23T16:32:46.152Z,2.53
2022-09-23T16:35:14.202Z,2.40
2022-09-23T16:37:47.117Z,2.70
2022-09-23T16:40:16.369Z,2.50
2022-09-23T16:42:46.383Z,2.63
2022-09-23T16:45:17.105Z,2.37
2022-09-23T16:47:46.104Z,2.30
2022-09-23T16:50:14.736Z,2.50
2022-09-23T16:52:44.931Z,2.17
2022-09-23T16:55:14.575Z,3.03
2022-09-23T16:57:42.693Z,3.13
2022-09-23T17:00:32.241Z,2.87
2022-09-23T17:03:17.794Z,2.57
2022-09-23T17:05:58.727Z,2.50
2022-09-23T17:08:35.819Z,2.37
2022-09-23T17:11:03.632Z,2.37
2022-09-23T17:13:32.454Z,3.00
2022-09-23T17:16:00.779Z,3.17
2022-09-23T17:18:29.672Z,3.00
2022-09-23T17:20:59.142Z,2.80
2022-09-23T17:23:28.243Z,2.50
2022-09-23T17:25:57.454Z,2.50
2022-09-23T17:28:25.616Z,2.60
2022-09-23T17:30:58.517Z,3.07
2022-09-23T17:33:26.902Z,2.20
2022-09-23T17:35:56.686Z,2.70
2022-09-23T17:38:28.937Z,2.30
2022-09-23T17:41:01.183Z,2.70
2022-09-23T17:43:30.078Z,2.67
2022-09-23T17:46:06.445Z,2.40
2022-09-23T17:48:36.218Z,2.50
2022-09-23T17:51:06.101Z,2.70
2022-09-23T17:53:35.895Z,3.00
2022-09-23T17:56:07.332Z,2.70
2022-09-23T17:58:36.782Z,3.17
2022-09-23T18:01:05.383Z,2.80
2022-09-23T18:03:33.277Z,4.00
2022-09-23T18:06:12.540Z,3.67
2022-09-23T18:08:41.627Z,3.37
2022-09-23T18:11:16.001Z,3.33
2022-09-23T18:13:47.434Z,3.83
2022-09-23T18:16:15.263Z,4.20
2022-09-23T18:18:43.049Z,4.67
2022-09-23T18:21:11.017Z,4.30
2022-09-23T18:23:39.050Z,3.27
2022-09-23T18:26:15.747Z,2.53
2022-09-23T18:28:43.690Z,2.50
2022-09-23T18:31:12.270Z,2.80
2022-09-23T18:33:40.512Z,3.33
2022-09-23T18:36:09.522Z,4.20
2022-09-23T18:38:37.392Z,3.70
2022-09-23T18:41:05.273Z,3.80
2022-09-23T18:43:41.298Z,3.67
2022-09-23T18:46:13.492Z,3.73
2022-09-23T18:48:59.254Z,3.77
2022-09-23T18:51:28.985Z,5.50
2022-09-23T18:54:00.412Z,5.03
2022-09-23T18:56:33.643Z,5.90
2022-09-23T18:59:02.842Z,7.10
2022-09-23T19:01:30.767Z,6.60
2022-09-23T19:04:00.957Z,5.23
2022-09-23T19:06:29.885Z,5.27
2022-09-23T19:08:57.626Z,5.30
2022-09-23T19:11:25.880Z,5.73
2022-09-23T19:13:55.601Z,5.50
2022-09-23T19:16:25.708Z,5.03
2022-09-23T19:18:54.276Z,6.43
2022-09-23T19:21:23.179Z,6.63
2022-09-23T19:23:53.536Z,6.00
2022-09-23T19:26:23.412Z,6.83
2022-09-23T19:28:52.553Z,5.83
2022-09-23T19:31:22.230Z,5.43
2022-09-23T19:33:56.875Z,7.00
2022-09-23T19:36:26.595Z,6.60
2022-09-23T19:38:55.630Z,6.80
2022-09-23T19:41:23.814Z,8.00
2022-09-23T19:43:54.001Z,8.57
2022-09-23T19:46:22.291Z,8.17
2022-09-23T19:48:50.674Z,7.33
2022-09-23T19:51:19.736Z,6.63
2022-09-23T19:53:47.654Z,7.40
2022-09-23T19:56:18.045Z,6.53
2022-09-23T19:58:48.138Z,6.00
2022-09-23T20:01:16.513Z,5.87
2022-09-23T20:03:45.017Z,5.97
2022-09-23T20:06:12.773Z,5.37
2022-09-23T20:08:41.921Z,6.07
2022-09-23T20:11:12.191Z,5.90
2022-09-23T20:13:40.931Z,5.70
2022-09-23T20:16:12.854Z,5.17
2022-09-23T20:18:42.120Z,4.87
2022-09-23T20:21:12.159Z,5.90
2022-09-23T20:23:41.777Z,5.33
2022-09-23T20:26:28.514Z,5.53
2022-09-23T20:28:56.616Z,5.70
2022-09-23T20:31:25.041Z,6.10
2022-09-23T20:33:54.790Z,8.43
2022-09-23T20:36:22.550Z,7.07
2022-09-23T20:38:55.477Z,5.40
2022-09-23T20:41:23.284Z,6.07
2022-09-23T20:43:53.869Z,6.23
2022-09-23T20:46:23.270Z,6.27
2022-09-23T20:48:51.397Z,5.53
2022-09-23T20:51:19.155Z,5.53
2022-09-23T20:53:51.723Z,4.93
2022-09-23T20:56:21.691Z,5.37
2022-09-23T20:58:50.673Z,4.97
2022-09-23T21:01:18.952Z,5.80
2022-09-23T21:03:49.123Z,9.03
2022-09-23T21:06:18.869Z,8.00
2022-09-23T21:08:47.226Z,7.57
2022-09-23T21:11:16.739Z,6.33
2022-09-23T21:13:49.102Z,5.90
2022-09-23T21:16:18.340Z,5.30
2022-09-23T21:18:47.936Z,5.10
2022-09-23T21:21:18.241Z,4.13
2022-09-23T21:23:47.133Z,4.80
2022-09-23T21:26:17.703Z,5.27
2022-09-23T21:28:48.290Z,4.20
2022-09-23T21:31:23.010Z,3.80
2022-09-23T21:33:54.302Z,4.03
2022-09-23T21:36:24.383Z,3.90
2022-09-23T21:38:52.599Z,3.97
2022-09-23T21:41:20.749Z,3.97
2022-09-23T21:43:50.082Z,5.30
2022-09-23T21:46:20.803Z,4.60
2022-09-23T21:48:53.021Z,4.23
2022-09-23T21:51:24.094Z,4.53
2022-09-23T21:53:52.544Z,4.63
2022-09-23T21:56:21.588Z,4.10
2022-09-23T21:58:52.078Z,3.70
2022-09-23T22:01:21.719Z,4.30
2022-09-23T22:03:51.625Z,3.90
2022-09-23T22:06:22.147Z,3.60
2022-09-23T22:08:51.841Z,4.40
2022-09-23T22:11:39.201Z,4.50
2022-09-23T22:14:11.082Z,4.30
2022-09-23T22:16:39.071Z,4.20
2022-09-23T22:19:08.138Z,4.07
2022-09-23T22:21:38.035Z,4.07
2022-09-23T22:24:08.278Z,4.23
2022-09-23T22:26:38.400Z,4.13
2022-09-23T22:29:26.398Z,4.50
2022-09-23T22:32:11.872Z,3.70
2022-09-23T22:34:50.602Z,4.47
2022-09-23T22:37:23.064Z,4.50
2022-09-23T22:39:50.819Z,4.00
2022-09-23T22:42:21.107Z,4.07
2022-09-23T22:44:50.441Z,4.03
2022-09-23T22:47:19.310Z,4.23
2022-09-23T22:49:47.144Z,4.53
2022-09-23T22:52:16.069Z,4.40
2022-09-23T22:54:43.942Z,4.30
2022-09-23T22:57:11.848Z,4.60
2022-09-23T23:02:23.609Z,4.10
2022-09-23T23:04:51.749Z,4.27
2022-09-23T23:07:21.517Z,4.97
2022-09-23T23:09:50.605Z,4.10
2022-09-23T23:12:19.898Z,4.20
2022-09-23T23:14:47.963Z,4.90
2022-09-23T23:17:15.736Z,4.27
2022-09-23T23:19:45.096Z,4.40
2022-09-23T23:22:12.927Z,4.00
2022-09-23T23:24:40.732Z,4.73
2022-09-23T23:27:08.533Z,4.13
2022-09-23T23:29:36.247Z,4.23
2022-09-23T23:32:04.999Z,4.57
2022-09-23T23:34:33.222Z,4.57
2022-09-23T23:37:02.370Z,4.30
2022-09-23T23:39:30.102Z,4.33
2022-09-23T23:41:58.959Z,4.53
2022-09-23T23:44:27.637Z,4.23
2022-09-23T23:46:55.899Z,4.83
2022-09-23T23:49:24.017Z,4.93
2022-09-23T23:51:52.067Z,4.30
2022-09-23T23:54:21.132Z,4.40
2022-09-23T23:56:48.870Z,4.70
2022-09-23T23:59:18.283Z,4.47
